Time;durP1;ratioP1;P1;durP2;ratioP2;P2;SDS_P1;SDS_P2;PMS_P1;PMS_P2;Temp;Humidity;BMP_temperature;BMP_pressure;BME280_temperature;BME280_humidity;BME280_pressure;Samples;Min_cycle;Max_cycle;Signal;HPM_P1;HPM_P2
2023/02/02 00:02:48;;;;;;;14.87;2.90;;;;;;;-145.18;100.00;60484.78;5010979;28;20534;-65
2023/02/02 00:06:04;;;;;;;12.65;2.00;;;;;;;-145.18;100.00;60484.78;5004137;28;20041;-66
2023/02/02 00:09:29;;;;;;;21.13;2.30;;;;;;;-145.18;100.00;60484.78;5003592;28;20033;-65
2023/02/02 00:12:56;;;;;;;19.30;3.03;;;;;;;-145.18;100.00;60484.78;5015751;28;20858;-65
2023/02/02 00:16:20;;;;;;;15.40;1.90;;;;;;;-145.18;100.00;60484.78;5007558;28;20022;-64
2023/02/02 00:19:45;;;;;;;10.93;1.77;;;;;;;-145.18;100.00;60484.78;5009694;28;20379;-65
2023/02/02 00:22:55;;;;;;;16.77;1.70;;;;;;;-145.18;100.00;60484.78;5010329;28;20033;-65
2023/02/02 00:26:17;;;;;;;17.37;2.17;;;;;;;-145.18;100.00;60484.78;5009466;28;20075;-65
2023/02/02 00:29:39;;;;;;;19.43;2.90;;;;;;;-145.18;100.00;60484.78;5006436;28;20072;-65
2023/02/02 00:33:03;;;;;;;19.02;2.38;;;;;;;-145.18;100.00;60484.78;5008182;28;20033;-65
2023/02/02 00:36:15;;;;;;;15.10;2.40;;;;;;;-145.18;100.00;60484.78;5008639;28;20041;-64
2023/02/02 00:39:39;;;;;;;11.85;1.70;;;;;;;-145.18;100.00;60484.78;5012373;28;20076;-65
2023/02/02 00:43:03;;;;;;;15.10;2.77;;;;;;;-145.18;100.00;60484.78;5007573;28;20044;-65
2023/02/02 00:46:27;;;;;;;10.70;1.60;;;;;;;-145.18;100.00;60484.78;5011309;28;20018;-65
2023/02/02 00:49:51;;;;;;;17.20;2.70;;;;;;;-145.18;100.00;60484.78;5010461;28;20493;-64
2023/02/02 00:52:32;;;;;;;20.80;2.47;;;;;;;-145.18;100.00;60484.78;5005966;28;20481;-65
2023/02/02 00:55:55;;;;;;;17.73;1.73;;;;;;;-145.18;100.00;60484.78;5008101;28;20826;-65
2023/02/02 00:59:19;;;;;;;10.33;1.90;;;;;;;-145.18;100.00;60484.78;5008654;28;20045;-64
2023/02/02 01:02:43;;;;;;;18.43;2.10;;;;;;;-145.18;100.00;60484.78;5006980;28;20053;-65
2023/02/02 01:06:09;;;;;;;11.43;2.10;;;;;;;-145.18;100.00;60484.78;5009008;28;20038;-65
2023/02/02 01:09:33;;;;;;;8.50;1.67;;;;;;;-145.18;100.00;60484.78;5010486;28;20084;-65
2023/02/02 01:12:56;;;;;;;14.70;1.97;;;;;;;-145.18;100.00;60484.78;5007010;28;20030;-65
2023/02/02 01:16:09;;;;;;;14.20;2.27;;;;;;;-145.18;100.00;60484.78;5007279;28;20131;-64
2023/02/02 01:19:17;;;;;;;12.30;2.63;;;;;;;-145.18;100.00;60484.78;5008935;28;20072;-65
2023/02/02 01:22:41;;;;;;;18.60;2.63;;;;;;;-145.18;100.00;60484.78;5015526;28;20075;-65
2023/02/02 01:26:06;;;;;;;13.60;2.10;;;;;;;-145.18;100.00;60484.78;5014013;28;20038;-64
2023/02/02 01:29:20;;;;;;;15.53;2.10;;;;;;;-145.18;100.00;60484.78;5010217;28;20033;-65
2023/02/02 01:32:38;;;;;;;12.73;1.90;;;;;;;-145.18;100.00;60484.78;5020201;28;20033;-67
2023/02/02 01:36:06;;;;;;;9.23;2.00;;;;;;;-145.18;100.00;60484.78;5010026;28;20029;-65
2023/02/02 01:39:30;;;;;;;21.30;3.33;;;;;;;-145.18;100.00;60484.78;5006233;28;20026;-65
2023/02/02 01:42:13;;;;;;;14.87;2.03;;;;;;;-145.18;100.00;60484.78;5017300;28;20065;-65
2023/02/02 01:45:01;;;;;;;17.33;2.63;;;;;;;-145.18;100.00;60484.78;5013961;28;20038;-65
2023/02/02 01:48:05;;;;;;;13.77;2.50;;;;;;;-145.18;100.00;60484.78;5006474;28;20461;-64
2023/02/02 01:51:34;;;;;;;18.77;1.90;;;;;;;-145.18;100.00;60484.78;5000820;28;20065;-66
2023/02/02 01:55:03;;;;;;;16.50;2.20;;;;;;;-145.18;100.00;60484.78;5008847;28;20052;-65
2023/02/02 01:58:47;;;;;;;13.57;2.20;;;;;;;-145.18;100.00;60484.78;5016041;28;20057;-66
2023/02/02 02:02:13;;;;;;;20.73;3.20;;;;;;;-145.18;100.00;60484.78;5017302;28;20541;-70
2023/02/02 02:05:45;;;;;;;8.63;1.80;;;;;;;-145.18;100.00;60484.78;5041697;28;20044;-67
2023/02/02 02:09:16;;;;;;;10.40;1.70;;;;;;;-145.18;100.00;60484.78;5052145;28;20548;-66
2023/02/02 02:12:39;;;;;;;19.73;2.33;;;;;;;-145.18;100.00;60484.78;5050108;28;20525;-68
2023/02/02 02:16:18;;;;;;;15.00;2.40;;;;;;;-145.18;100.00;60484.78;5034249;28;20064;-68
2023/02/02 02:29:13;;;;;;;17.40;2.90;;;;;;;-145.18;100.00;60484.78;5051694;28;20074;-68
2023/02/02 02:33:06;;;;;;;17.77;2.13;;;;;;;-145.18;100.00;60484.78;4990405;28;20034;-68
2023/02/02 02:36:38;;;;;;;10.97;2.00;;;;;;;-145.18;100.00;60484.78;4989151;28;20576;-66
2023/02/02 02:40:24;;;;;;;15.20;2.87;;;;;;;-145.18;100.00;60484.78;4992583;28;20030;-67
2023/02/02 02:43:55;;;;;;;22.70;3.13;;;;;;;-145.18;100.00;60484.78;4992899;28;20094;-68
2023/02/02 02:47:19;;;;;;;22.87;2.77;;;;;;;-145.18;100.00;60484.78;4990438;28;20446;-69
2023/02/02 02:50:44;;;;;;;17.13;2.40;;;;;;;-145.18;100.00;60484.78;4984420;28;20046;-68
2023/02/02 02:54:21;;;;;;;16.40;3.00;;;;;;;-145.18;100.00;60484.78;4991247;28;21486;-67
2023/02/02 02:58:13;;;;;;;15.37;2.47;;;;;;;-145.18;100.00;60484.78;4994321;28;20038;-68
2023/02/02 03:01:50;;;;;;;19.92;2.50;;;;;;;-145.18;100.00;60484.78;4989169;28;20038;-68
2023/02/02 03:05:09;;;;;;;13.83;2.07;;;;;;;-145.18;100.00;60484.78;4979522;28;20145;-68
2023/02/02 03:08:38;;;;;;;24.03;2.53;;;;;;;-145.18;100.00;60484.78;4992663;28;20091;-68
2023/02/02 03:11:47;;;;;;;18.83;2.00;;;;;;;-145.18;100.00;60484.78;5024921;28;20026;-69
2023/02/02 03:15:11;;;;;;;31.43;5.17;;;;;;;-145.18;100.00;60484.78;5024698;28;20021;-68
2023/02/02 03:18:28;;;;;;;22.07;2.60;;;;;;;-145.18;100.00;60484.78;5029385;28;20033;-67
2023/02/02 03:21:11;;;;;;;26.40;2.73;;;;;;;-145.18;100.00;60484.78;5034947;28;20554;-68
2023/02/02 03:24:19;;;;;;;17.30;2.77;;;;;;;-145.18;100.00;60484.78;5029925;28;20186;-68
2023/02/02 03:27:43;;;;;;;20.93;2.23;;;;;;;-145.18;100.00;60484.78;5022994;28;20021;-68
2023/02/02 03:31:08;;;;;;;17.50;2.50;;;;;;;-145.18;100.00;60484.78;5029191;28;20025;-68
2023/02/02 03:34:33;;;;;;;14.93;2.37;;;;;;;-145.18;100.00;60484.78;5027512;28;20489;-66
2023/02/02 03:37:57;;;;;;;16.83;2.30;;;;;;;-145.18;100.00;60484.78;5032796;28;20041;-68
2023/02/02 03:41:21;;;;;;;24.07;2.63;;;;;;;-145.18;100.00;60484.78;5027170;28;20079;-66
2023/02/02 03:44:27;;;;;;;23.53;3.10;;;;;;;-145.18;100.00;60484.78;5036430;28;20064;-68
2023/02/02 03:47:51;;;;;;;23.63;2.80;;;;;;;-145.18;100.00;60484.78;5027653;28;20505;-68
2023/02/02 03:51:15;;;;;;;18.10;2.70;;;;;;;-145.18;100.00;60484.78;5034700;28;20032;-68
2023/02/02 03:54:40;;;;;;;21.27;2.83;;;;;;;-145.18;100.00;60484.78;5023452;28;20017;-67
2023/02/02 03:58:04;;;;;;;23.60;2.93;;;;;;;-145.18;100.00;60484.78;5024978;28;20480;-68
2023/02/02 04:01:28;;;;;;;22.70;3.33;;;;;;;-145.18;100.00;60484.78;5026839;28;20026;-69
2023/02/02 04:04:58;;;;;;;30.50;3.00;;;;;;;-145.18;100.00;60484.78;5027815;28;20576;-69
2023/02/02 04:08:22;;;;;;;19.63;2.93;;;;;;;-145.18;100.00;60484.78;5031260;28;20033;-69
2023/02/02 04:11:43;;;;;;;18.67;3.50;;;;;;;-145.18;100.00;60484.78;5027860;28;20040;-69
2023/02/02 04:14:55;;;;;;;29.00;4.20;;;;;;;-145.18;100.00;60484.78;5029054;28;20726;-70
2023/02/02 04:18:08;;;;;;;20.02;3.25;;;;;;;-145.18;100.00;60484.78;5011020;28;20167;-70
2023/02/02 04:21:09;;;;;;;30.60;3.83;;;;;;;-145.18;100.00;60484.78;5027843;28;20029;-69
2023/02/02 04:23:59;;;;;;;31.97;3.90;;;;;;;-145.18;100.00;60484.78;5023088;28;20033;-70
2023/02/02 04:26:51;;;;;;;27.07;4.03;;;;;;;-145.18;100.00;60484.78;5023006;28;20300;-70
2023/02/02 04:29:24;;;;;;;38.30;3.60;;;;;;;-145.18;100.00;60484.78;5016733;28;20080;-69
2023/02/02 04:32:25;;;;;;;22.40;3.13;;;;;;;-145.18;100.00;60484.78;5017375;28;20056;-69
2023/02/02 04:34:56;;;;;;;22.57;2.93;;;;;;;-145.18;100.00;60484.78;5018491;28;20021;-69
2023/02/02 04:37:21;;;;;;;26.27;3.40;;;;;;;-145.18;100.00;60484.78;5027132;28;20040;-70
2023/02/02 04:39:49;;;;;;;23.60;3.70;;;;;;;-145.18;100.00;60484.78;5031319;28;20025;-69
2023/02/02 04:42:16;;;;;;;30.23;4.20;;;;;;;-145.18;100.00;60484.78;5023146;28;20056;-69
2023/02/02 04:44:45;;;;;;;34.73;3.90;;;;;;;-145.18;100.00;60484.78;5032929;28;20052;-68
2023/02/02 04:47:11;;;;;;;20.57;2.80;;;;;;;-145.18;100.00;60484.78;5035864;28;20116;-69
2023/02/02 04:49:57;;;;;;;29.13;3.80;;;;;;;-145.18;100.00;60484.78;5024199;28;20037;-69
2023/02/02 04:52:37;;;;;;;38.07;3.83;;;;;;;-145.18;100.00;60484.78;5031603;28;20026;-70
2023/02/02 04:55:10;;;;;;;32.40;4.33;;;;;;;-145.18;100.00;60484.78;5020455;28;20029;-69
2023/02/02 04:57:36;;;;;;;26.43;3.07;;;;;;;-145.18;100.00;60484.78;5034211;28;20033;-69
2023/02/02 05:00:10;;;;;;;35.00;4.10;;;;;;;-145.18;100.00;60484.78;5031179;28;21549;-69
2023/02/02 05:02:37;;;;;;;22.17;3.07;;;;;;;-145.18;100.00;60484.78;5013448;28;20040;-67
2023/02/02 05:05:09;;;;;;;22.97;3.40;;;;;;;-145.18;100.00;60484.78;5029362;28;20638;-67
2023/02/02 05:07:38;;;;;;;34.87;4.03;;;;;;;-145.18;100.00;60484.78;5038498;28;20649;-67
2023/02/02 05:10:06;;;;;;;27.20;4.00;;;;;;;-145.18;100.00;60484.78;5036875;28;20038;-67
2023/02/02 05:12:44;;;;;;;31.77;3.67;;;;;;;-145.18;100.00;60484.78;5034317;28;20034;-69
2023/02/02 05:15:11;;;;;;;37.37;3.53;;;;;;;-145.18;100.00;60484.78;5039194;28;20030;-68
2023/02/02 05:17:44;;;;;;;29.07;4.00;;;;;;;-145.18;100.00;60484.78;5040158;28;20091;-68
2023/02/02 05:20:10;;;;;;;19.17;2.50;;;;;;;-145.18;100.00;60484.78;5020022;28;20108;-69
2023/02/02 05:22:37;;;;;;;23.47;3.40;;;;;;;-145.18;100.00;60484.78;5038448;28;20060;-68
2023/02/02 05:25:25;;;;;;;19.80;2.93;;;;;;;-145.18;100.00;60484.78;5029099;28;20026;-69
2023/02/02 05:27:51;;;;;;;16.60;2.87;;;;;;;-145.18;100.00;60484.78;5027592;28;20021;-69
2023/02/02 05:30:17;;;;;;;40.10;4.73;;;;;;;-145.18;100.00;60484.78;5032628;28;20036;-68
2023/02/02 05:32:43;;;;;;;17.20;2.30;;;;;;;-145.18;100.00;60484.78;5032915;28;20028;-68
2023/02/02 05:35:09;;;;;;;30.60;2.90;;;;;;;-145.18;100.00;60484.78;5034820;28;20642;-68
2023/02/02 05:37:35;;;;;;;18.27;3.27;;;;;;;-145.18;100.00;60484.78;5032837;28;20116;-69
2023/02/02 05:40:03;;;;;;;28.53;3.23;;;;;;;-145.18;100.00;60484.78;5030951;28;20036;-69
2023/02/02 05:42:30;;;;;;;27.77;2.90;;;;;;;-145.18;100.00;60484.78;5028517;28;20049;-69
2023/02/02 05:44:57;;;;;;;30.17;4.07;;;;;;;-145.18;100.00;60484.78;5025645;28;20079;-69
2023/02/02 05:47:24;;;;;;;24.17;3.10;;;;;;;-145.18;100.00;60484.78;5032456;28;20042;-69
2023/02/02 05:49:55;;;;;;;28.97;3.37;;;;;;;-145.18;100.00;60484.78;5026655;28;20029;-69
2023/02/02 05:52:30;;;;;;;21.30;2.87;;;;;;;-145.18;100.00;60484.78;5033524;28;20057;-69
2023/02/02 05:54:57;;;;;;;28.27;3.67;;;;;;;-145.18;100.00;60484.78;5030722;28;20030;-68
2023/02/02 05:57:22;;;;;;;25.70;3.10;;;;;;;-145.18;100.00;60484.78;5025303;28;20037;-69
2023/02/02 05:59:50;;;;;;;21.07;3.47;;;;;;;-145.18;100.00;60484.78;5032991;28;20018;-67
2023/02/02 06:02:16;;;;;;;26.60;3.27;;;;;;;-145.18;100.00;60484.78;5033877;28;20033;-68
2023/02/02 06:04:41;;;;;;;23.73;2.80;;;;;;;-145.18;100.00;60484.78;5033921;28;20029;-68
2023/02/02 06:07:06;;;;;;;21.03;3.57;;;;;;;-145.18;100.00;60484.78;5034547;28;20029;-68
2023/02/02 06:09:32;;;;;;;27.60;3.07;;;;;;;-145.18;100.00;60484.78;5035088;28;20151;-69
2023/02/02 06:11:57;;;;;;;16.10;3.03;;;;;;;-145.18;100.00;60484.78;5027076;28;20025;-69
2023/02/02 06:14:23;;;;;;;26.33;3.50;;;;;;;-145.18;100.00;60484.78;5027087;28;20037;-68
2023/02/02 06:16:51;;;;;;;25.77;3.80;;;;;;;-145.18;100.00;60484.78;5035085;28;20545;-69
2023/02/02 06:19:18;;;;;;;19.20;2.87;;;;;;;-145.18;100.00;60484.78;5017069;28;20112;-69
2023/02/02 06:21:44;;;;;;;26.53;3.43;;;;;;;-145.18;100.00;60484.78;5031506;28;20027;-69
2023/02/02 06:24:10;;;;;;;21.17;3.23;;;;;;;-145.18;100.00;60484.78;5014576;28;20451;-69
2023/02/02 06:26:36;;;;;;;27.90;3.90;;;;;;;-145.18;100.00;60484.78;5028939;28;20033;-69
2023/02/02 06:29:05;;;;;;;19.53;2.70;;;;;;;-145.18;100.00;60484.78;5024033;28;20078;-69
2023/02/02 06:31:32;;;;;;;30.93;3.10;;;;;;;-145.18;100.00;60484.78;5029432;28;20045;-69
2023/02/02 06:33:59;;;;;;;19.37;3.13;;;;;;;-145.18;100.00;60484.78;5030822;28;20025;-70
2023/02/02 06:36:26;;;;;;;17.53;2.47;;;;;;;-145.18;100.00;60484.78;5033384;28;20115;-69
2023/02/02 06:38:54;;;;;;;17.80;2.27;;;;;;;-145.18;100.00;60484.78;5033545;28;20021;-70
2023/02/02 06:41:20;;;;;;;18.83;2.57;;;;;;;-145.18;100.00;60484.78;5033382;28;20478;-68
2023/02/02 06:43:47;;;;;;;18.47;2.33;;;;;;;-145.18;100.00;60484.78;5032056;28;20037;-69
2023/02/02 06:46:14;;;;;;;14.73;2.00;;;;;;;-145.18;100.00;60484.78;5033394;28;20117;-69
2023/02/02 06:48:40;;;;;;;17.60;3.17;;;;;;;-145.18;100.00;60484.78;5033672;28;20029;-69
2023/02/02 06:51:18;;;;;;;12.50;2.00;;;;;;;-145.18;100.00;60484.78;5033450;28;20767;-68
2023/02/02 06:53:50;;;;;;;18.20;2.60;;;;;;;-145.18;100.00;60484.78;5033073;28;20017;-70
2023/02/02 06:56:17;;;;;;;11.40;1.98;;;;;;;-145.18;100.00;60484.78;5033425;28;20128;-68
2023/02/02 06:58:44;;;;;;;14.77;2.73;;;;;;;-145.18;100.00;60484.78;5032996;28;20030;-69
2023/02/02 07:01:16;;;;;;;22.03;2.80;;;;;;;-145.18;100.00;60484.78;5031239;28;20037;-69
2023/02/02 07:03:46;;;;;;;12.43;2.10;;;;;;;-145.18;100.00;60484.78;5032851;28;20025;-69
2023/02/02 07:06:30;;;;;;;12.27;2.00;;;;;;;-145.18;100.00;60484.78;5033143;28;20033;-69
2023/02/02 07:09:04;;;;;;;6.80;1.37;;;;;;;-145.18;100.00;60484.78;5033007;28;20404;-69
2023/02/02 07:11:44;;;;;;;7.33;1.77;;;;;;;-145.18;100.00;60484.78;5032954;28;20428;-69
2023/02/02 07:14:26;;;;;;;10.20;1.40;;;;;;;-145.18;100.00;60484.78;5032967;28;20485;-69
2023/02/02 07:16:57;;;;;;;10.60;1.92;;;;;;;-145.18;100.00;60484.78;5033106;28;20025;-68
2023/02/02 07:19:50;;;;;;;10.90;1.83;;;;;;;-145.18;100.00;60484.78;5016627;28;20030;-69
2023/02/02 07:22:31;;;;;;;11.70;1.93;;;;;;;-145.18;100.00;60484.78;5013114;28;20105;-69
2023/02/02 07:25:12;;;;;;;11.10;1.65;;;;;;;-145.18;100.00;60484.78;5012728;28;20381;-69
2023/02/02 07:27:42;;;;;;;8.37;1.50;;;;;;;-145.18;100.00;60484.78;5013922;28;20477;-69
2023/02/02 07:30:36;;;;;;;13.07;1.80;;;;;;;-145.18;100.00;60484.78;5032641;28;20291;-69
2023/02/02 07:33:03;;;;;;;12.40;1.70;;;;;;;-145.18;100.00;60484.78;5032685;28;20053;-70
2023/02/02 07:35:55;;;;;;;10.13;1.73;;;;;;;-145.18;100.00;60484.78;5016667;28;20076;-69
2023/02/02 07:38:32;;;;;;;8.60;1.40;;;;;;;-145.18;100.00;60484.78;5021515;28;20372;-69
2023/02/02 07:41:04;;;;;;;7.13;1.20;;;;;;;-145.18;100.00;60484.78;4999560;28;20029;-69
2023/02/02 07:43:30;;;;;;;5.37;1.40;;;;;;;-145.18;100.00;60484.78;5014367;28;20029;-69
2023/02/02 07:46:01;;;;;;;8.37;1.40;;;;;;;-145.18;100.00;60484.78;5032279;28;20096;-70
2023/02/02 07:48:33;;;;;;;6.18;1.50;;;;;;;-145.18;100.00;60484.78;5032348;28;20034;-68
2023/02/02 07:51:08;;;;;;;6.40;1.27;;;;;;;-145.18;100.00;60484.78;5027856;28;20071;-68
2023/02/02 07:53:34;;;;;;;7.33;1.33;;;;;;;-145.18;100.00;60484.78;5018206;28;20432;-69
2023/02/02 07:56:24;;;;;;;11.63;1.70;;;;;;;-145.18;100.00;60484.78;5032151;28;20056;-69
2023/02/02 07:58:59;;;;;;;13.07;1.77;;;;;;;-145.18;100.00;60484.78;5032325;28;20465;-69
2023/02/02 08:01:29;;;;;;;8.93;1.70;;;;;;;-145.18;100.00;60484.78;5031986;28;20037;-69
2023/02/02 08:04:04;;;;;;;7.27;1.30;;;;;;;-145.18;100.00;60484.78;5013468;28;20489;-69
2023/02/02 08:07:01;;;;;;;11.20;1.47;;;;;;;-145.18;100.00;60484.78;5015367;28;20392;-69
2023/02/02 08:09:27;;;;;;;6.07;1.60;;;;;;;-145.18;100.00;60484.78;5016737;28;20503;-69
2023/02/02 08:12:00;;;;;;;10.57;2.00;;;;;;;-145.18;100.00;60484.78;5022072;28;20036;-67
2023/02/02 08:15:00;;;;;;;9.57;1.50;;;;;;;-145.18;100.00;60484.78;5012415;28;20069;-68
2023/02/02 08:17:36;;;;;;;8.87;1.60;;;;;;;-145.18;100.00;60484.78;5020885;28;20496;-69
2023/02/02 08:20:06;;;;;;;9.50;1.43;;;;;;;-145.18;100.00;60484.78;5031894;28;20060;-68
2023/02/02 08:22:33;;;;;;;10.77;1.67;;;;;;;-145.18;100.00;60484.78;5031659;28;20111;-69
2023/02/02 08:25:09;;;;;;;9.17;1.90;;;;;;;-145.18;100.00;60484.78;5031738;28;20030;-68
2023/02/02 08:28:21;;;;;;;9.17;1.90;;;;;;;-145.18;100.00;60484.78;5030806;28;20056;-69
2023/02/02 08:31:43;;;;;;;15.60;2.50;;;;;;;-145.18;100.00;60484.78;5031280;28;20032;-70
2023/02/02 08:35:07;;;;;;;8.20;2.10;;;;;;;-145.18;100.00;60484.78;5023326;28;20499;-69
2023/02/02 08:38:10;;;;;;;8.83;2.00;;;;;;;-145.18;100.00;60484.78;5031603;28;20037;-69
2023/02/02 08:41:12;;;;;;;9.50;1.80;;;;;;;-145.18;100.00;60484.78;5031438;28;20345;-69
2023/02/02 08:43:52;;;;;;;12.25;2.47;;;;;;;-145.18;100.00;60484.78;5021562;28;20032;-69
2023/02/02 08:46:45;;;;;;;8.63;1.50;;;;;;;-145.18;100.00;60484.78;5011903;28;20038;-70
2023/02/02 08:50:11;;;;;;;9.57;1.70;;;;;;;-145.18;100.00;60484.78;5011894;28;20081;-69
2023/02/02 08:53:30;;;;;;;11.40;1.80;;;;;;;-145.18;100.00;60484.78;5011957;28;20528;-70
2023/02/02 08:56:06;;;;;;;7.43;1.63;;;;;;;-145.18;100.00;60484.78;5012030;28;20030;-68
2023/02/02 08:59:20;;;;;;;8.70;1.60;;;;;;;-145.18;100.00;60484.78;5011965;28;20374;-69
2023/02/02 09:02:17;;;;;;;8.13;1.53;;;;;;;-145.18;100.00;60484.78;5012255;28;20033;-69
2023/02/02 09:04:45;;;;;;;8.33;1.60;;;;;;;-145.18;100.00;60484.78;5031310;28;20037;-69
2023/02/02 09:08:09;;;;;;;5.60;1.40;;;;;;;-145.18;100.00;60484.78;5031196;28;20041;-69
2023/02/02 09:11:15;;;;;;;7.07;1.30;;;;;;;-145.18;100.00;60484.78;5020637;28;20033;-68
2023/02/02 09:14:40;;;;;;;8.97;1.67;;;;;;;-145.18;100.00;60484.78;5011472;28;20040;-67
2023/02/02 09:18:02;;;;;;;4.43;1.30;;;;;;;-145.18;100.00;60484.78;5027240;28;20085;-68
2023/02/02 09:21:08;;;;;;;9.52;1.40;;;;;;;-145.18;100.00;60484.78;5028719;28;20487;-69
2023/02/02 09:24:11;;;;;;;7.33;1.47;;;;;;;-145.18;100.00;60484.78;5031228;28;20555;-69
2023/02/02 09:27:40;;;;;;;10.27;1.50;;;;;;;-145.18;100.00;60484.78;5034660;28;20040;-69
2023/02/02 09:30:50;;;;;;;10.23;2.00;;;;;;;-145.18;100.00;60484.78;5034705;28;20038;-68
2023/02/02 09:33:31;;;;;;;8.70;1.57;;;;;;;-145.18;100.00;60484.78;5034723;28;20128;-68
2023/02/02 09:36:55;;;;;;;8.63;1.83;;;;;;;-145.18;100.00;60484.78;5025825;28;20025;-69
2023/02/02 09:40:16;;;;;;;5.53;1.53;;;;;;;-145.18;100.00;60484.78;5034910;28;20025;-69
2023/02/02 09:43:27;;;;;;;6.97;1.60;;;;;;;-145.18;100.00;60484.78;5034662;28;20361;-68
2023/02/02 09:46:55;;;;;;;7.03;1.20;;;;;;;-145.18;100.00;60484.78;5019984;28;20504;-69
2023/02/02 09:50:18;;;;;;;7.03;1.70;;;;;;;-145.18;100.00;60484.78;5014357;28;20056;-69
2023/02/02 09:53:59;;;;;;;10.53;1.40;;;;;;;-145.18;100.00;60484.78;5024553;28;20025;-68
2023/02/02 09:57:40;;;;;;;8.23;1.53;;;;;;;-145.18;100.00;60484.78;5017880;28;20080;-68
2023/02/02 10:01:12;;;;;;;8.13;1.20;;;;;;;-145.18;100.00;60484.78;5034227;28;20113;-68
2023/02/02 10:04:50;;;;;;;6.15;1.40;;;;;;;-145.18;100.00;60484.78;5026317;28;20025;-69
2023/02/02 10:08:30;;;;;;;7.20;1.50;;;;;;;-145.18;100.00;60484.78;5034016;28;20085;-68
2023/02/02 10:12:13;;;;;;;10.37;1.53;;;;;;;-145.18;100.00;60484.78;5014782;28;20469;-68
2023/02/02 10:16:02;;;;;;;9.88;1.65;;;;;;;-145.18;100.00;60484.78;5028361;28;20485;-68
2023/02/02 10:19:32;;;;;;;9.93;1.83;;;;;;;-145.18;100.00;60484.78;5027770;28;20479;-68
2023/02/02 10:22:58;;;;;;;11.30;1.60;;;;;;;-145.18;100.00;60484.78;5034045;28;20380;-68
2023/02/02 10:26:29;;;;;;;8.77;1.40;;;;;;;-145.18;100.00;60484.78;5025064;28;20141;-69
2023/02/02 10:29:56;;;;;;;12.27;1.53;;;;;;;-145.18;100.00;60484.78;5013861;28;20026;-69
2023/02/02 10:33:50;;;;;;;8.30;1.93;;;;;;;-145.18;100.00;60484.78;5013901;28;20113;-67
2023/02/02 10:38:01;;;;;;;6.33;1.30;;;;;;;-145.18;100.00;60484.78;5010419;28;20521;-69
2023/02/02 10:41:35;;;;;;;9.47;1.83;;;;;;;-145.18;100.00;60484.78;5013684;28;20108;-68
2023/02/02 10:45:16;;;;;;;9.27;1.53;;;;;;;-145.18;100.00;60484.78;5015488;28;20501;-69
2023/02/02 10:48:42;;;;;;;9.30;1.80;;;;;;;-145.18;100.00;60484.78;5033165;28;20036;-69
2023/02/02 10:52:21;;;;;;;9.57;1.80;;;;;;;-145.18;100.00;60484.78;5019668;28;20041;-68
2023/02/02 10:55:57;;;;;;;10.87;1.87;;;;;;;-145.18;100.00;60484.78;5013665;28;20473;-68
2023/02/02 10:59:30;;;;;;;8.00;1.90;;;;;;;-145.18;100.00;60484.78;4996072;28;20385;-68
2023/02/02 11:02:54;;;;;;;6.88;1.85;;;;;;;-145.18;100.00;60484.78;5031220;28;20111;-68
2023/02/02 11:10:06;;;;;;;12.93;2.17;;;;;;;-145.18;100.00;60484.78;5012795;28;20511;-67
2023/02/02 11:13:35;;;;;;;11.87;3.03;;;;;;;-145.18;100.00;60484.78;5029283;28;20030;-67
2023/02/02 11:17:22;;;;;;;11.40;2.00;;;;;;;-145.18;100.00;60484.78;5021616;28;20358;-67
2023/02/02 11:20:46;;;;;;;8.53;1.73;;;;;;;-145.18;100.00;60484.78;5015848;28;20361;-68
2023/02/02 11:24:20;;;;;;;10.80;1.90;;;;;;;-145.18;100.00;60484.78;5032056;28;20025;-68
2023/02/02 11:28:17;;;;;;;6.53;1.47;;;;;;;-145.18;100.00;60484.78;5029062;28;20041;-68
2023/02/02 11:31:43;;;;;;;8.77;1.77;;;;;;;-145.18;100.00;60484.78;5032849;28;20469;-68
2023/02/02 11:35:07;;;;;;;7.33;1.57;;;;;;;-145.18;100.00;60484.78;5017752;28;20052;-68
2023/02/02 11:38:35;;;;;;;10.70;1.93;;;;;;;-145.18;100.00;60484.78;5013185;28;20584;-68
2023/02/02 11:42:06;;;;;;;9.63;2.30;;;;;;;-145.18;100.00;60484.78;5012666;28;20366;-68
2023/02/02 11:45:38;;;;;;;14.60;2.90;;;;;;;-145.18;100.00;60484.78;5032321;28;20025;-68
2023/02/02 11:49:16;;;;;;;13.82;3.53;;;;;;;-145.18;100.00;60484.78;5030139;28;20038;-68
2023/02/02 11:52:44;;;;;;;10.90;2.67;;;;;;;-145.18;100.00;60484.78;5027915;28;20472;-68
2023/02/02 11:56:21;;;;;;;12.50;2.93;;;;;;;-145.18;100.00;60484.78;5031887;28;20021;-68
2023/02/02 11:59:48;;;;;;;10.90;2.77;;;;;;;-145.18;100.00;60484.78;5032311;28;20374;-68
2023/02/02 12:03:29;;;;;;;16.60;4.63;;;;;;;-145.18;100.00;60484.78;5031944;28;20032;-68
2023/02/02 12:06:53;;;;;;;9.93;2.60;;;;;;;-145.18;100.00;60484.78;5031977;28;20062;-68
2023/02/02 12:10:26;;;;;;;8.03;2.10;;;;;;;-145.18;100.00;60484.78;5012249;28;20172;-69
2023/02/02 12:14:10;;;;;;;8.67;1.70;;;;;;;-145.18;100.00;60484.78;5011990;28;20030;-70
2023/02/02 12:17:45;;;;;;;7.13;1.63;;;;;;;-145.18;100.00;60484.78;5011957;28;20033;-68
2023/02/02 12:21:42;;;;;;;16.50;2.50;;;;;;;-145.18;100.00;60484.78;5011889;28;20030;-69
2023/02/02 12:25:24;;;;;;;14.90;2.10;;;;;;;-145.18;100.00;60484.78;5017811;28;20371;-69
2023/02/02 12:29:02;;;;;;;7.07;2.22;;;;;;;-145.18;100.00;60484.78;5031728;28;20041;-70
2023/02/02 12:32:32;;;;;;;7.83;1.80;;;;;;;-145.18;100.00;60484.78;5031893;28;20048;-69
2023/02/02 12:36:15;;;;;;;13.33;2.13;;;;;;;-145.18;100.00;60484.78;5013888;28;20083;-69
2023/02/02 12:39:54;;;;;;;;;;;;;;;-145.18;100.00;60484.78;5031696;28;20032;-69
2023/02/02 12:43:39;;;;;;;12.93;1.90;;;;;;;-145.18;100.00;60484.78;5016008;28;20249;-69
2023/02/02 12:47:13;;;;;;;13.77;2.60;;;;;;;-145.18;100.00;60484.78;5012045;28;20026;-69
2023/02/02 12:51:07;;;;;;;10.50;1.93;;;;;;;-145.18;100.00;60484.78;5012103;28;20029;-68
2023/02/02 12:54:56;;;;;;;8.33;1.57;;;;;;;-145.18;100.00;60484.78;5025934;28;20071;-69
2023/02/02 12:58:26;;;;;;;7.73;1.90;;;;;;;-145.18;100.00;60484.78;5031246;28;20018;-70
2023/02/02 13:02:13;;;;;;;8.10;1.57;;;;;;;-145.18;100.00;60484.78;5015715;28;20465;-69
2023/02/02 13:05:53;;;;;;;11.20;1.80;;;;;;;-145.18;100.00;60484.78;5015402;28;20033;-69
2023/02/02 13:09:28;;;;;;;10.97;1.90;;;;;;;-145.18;100.00;60484.78;5015732;28;20485;-69
2023/02/02 13:13:16;;;;;;;9.60;1.83;;;;;;;-145.18;100.00;60484.78;5015203;28;20041;-69
2023/02/02 13:16:47;;;;;;;10.83;1.93;;;;;;;-145.18;100.00;60484.78;5026164;28;20099;-69
2023/02/02 13:20:40;;;;;;;11.67;2.20;;;;;;;-145.18;100.00;60484.78;5024222;28;20377;-69
2023/02/02 13:24:11;;;;;;;8.57;1.73;;;;;;;-145.18;100.00;60484.78;5015360;28;20049;-69
2023/02/02 13:27:38;;;;;;;9.27;1.80;;;;;;;-145.18;100.00;60484.78;5015106;28;20084;-69
2023/02/02 13:31:17;;;;;;;9.20;2.03;;;;;;;-145.18;100.00;60484.78;5016126;28;20037;-69
2023/02/02 13:34:56;;;;;;;9.70;2.00;;;;;;;-145.18;100.00;60484.78;5030289;28;20381;-69
2023/02/02 13:38:33;;;;;;;13.97;1.87;;;;;;;-145.18;100.00;60484.78;5024856;28;20030;-70
2023/02/02 13:41:59;;;;;;;11.93;2.40;;;;;;;-145.18;100.00;60484.78;5018054;28;20049;-70
2023/02/02 13:45:35;;;;;;;12.27;2.00;;;;;;;-145.18;100.00;60484.78;5034366;28;20036;-70
2023/02/02 13:49:16;;;;;;;11.50;2.17;;;;;;;-145.18;100.00;60484.78;5005232;28;20040;-70
2023/02/02 13:53:16;;;;;;;12.33;2.07;;;;;;;-145.18;100.00;60484.78;5032557;28;20396;-67
2023/02/02 13:57:08;;;;;;;15.07;2.00;;;;;;;-145.18;100.00;60484.78;5028588;28;20116;-68
2023/02/02 14:00:50;;;;;;;10.00;2.07;;;;;;;-145.18;100.00;60484.78;5020083;28;20025;-68
2023/02/02 14:04:30;;;;;;;7.30;1.63;;;;;;;-145.18;100.00;60484.78;5033191;28;20116;-67
2023/02/02 14:08:06;;;;;;;13.47;2.23;;;;;;;-145.18;100.00;60484.78;5017116;28;20042;-68
2023/02/02 14:11:36;;;;;;;9.30;1.73;;;;;;;-145.18;100.00;60484.78;5030795;28;20074;-66
2023/02/02 14:15:12;;;;;;;11.13;2.23;;;;;;;-145.18;100.00;60484.78;5033830;28;20029;-67
2023/02/02 14:18:48;;;;;;;14.07;2.10;;;;;;;-145.18;100.00;60484.78;5033951;28;20029;-69